Time;durP1;ratioP1;P1;durP2;ratioP2;P2;SDS_P1;SDS_P2;PMS_P1;PMS_P2;Temp;Humidity;BMP_temperature;BMP_pressure;BME280_temperature;BME280_humidity;BME280_pressure;Samples;Min_cycle;Max_cycle;Signal;HPM_P1;HPM_P2
2022/11/22 00:00:29;;;;;;;10.57;7.40;;;;;;;1.73;100.00;94444.34;5011306;28;105405;-69
2022/11/22 00:02:56;;;;;;;10.27;6.73;;;;;;;1.74;100.00;94438.88;5034367;28;101906;-69
2022/11/22 00:05:23;;;;;;;11.20;7.13;;;;;;;1.83;100.00;94454.97;5030485;28;102556;-69
2022/11/22 00:07:52;;;;;;;10.07;6.40;;;;;;;1.83;100.00;94457.59;5031027;28;101799;-69
2022/11/22 00:10:19;;;;;;;6.47;5.17;;;;;;;1.98;100.00;94470.88;5030969;28;102437;-69
2022/11/22 00:12:46;;;;;;;6.80;4.80;;;;;;;2.04;100.00;94457.59;5012300;28;103916;-69
2022/11/22 00:15:13;;;;;;;5.40;4.67;;;;;;;2.06;100.00;94471.25;5013004;28;101832;-69
2022/11/22 00:17:40;;;;;;;4.70;4.20;;;;;;;2.06;100.00;94460.75;5030800;28;102374;-69
2022/11/22 00:20:10;;;;;;;6.03;5.07;;;;;;;2.01;100.00;94465.94;5030114;28;102584;-69
2022/11/22 00:22:39;;;;;;;5.23;4.43;;;;;;;2.05;100.00;94468.88;5034134;28;101915;-69
2022/11/22 00:25:10;;;;;;;4.33;3.93;;;;;;;2.08;100.00;94463.16;5030640;28;102704;-69
2022/11/22 00:27:37;;;;;;;4.33;3.97;;;;;;;2.07;100.00;94469.44;5030971;28;101715;-69
2022/11/22 00:30:05;;;;;;;5.07;4.27;;;;;;;2.27;100.00;94483.56;5012803;28;103713;-69
2022/11/22 00:32:33;;;;;;;4.80;4.17;;;;;;;2.28;100.00;94485.13;5012060;28;104604;-69
2022/11/22 00:35:00;;;;;;;4.40;4.00;;;;;;;2.27;100.00;94485.38;5030793;28;101976;-69
2022/11/22 00:37:27;;;;;;;4.70;4.20;;;;;;;2.31;100.00;94489.91;5030699;28;102320;-69
2022/11/22 00:39:55;;;;;;;4.93;4.10;;;;;;;2.23;100.00;94487.69;5030301;28;102694;-69
2022/11/22 00:42:24;;;;;;;5.40;4.50;;;;;;;2.27;100.00;94493.25;5030473;28;101852;-69
2022/11/22 00:44:51;;;;;;;5.90;4.50;;;;;;;2.25;100.00;94500.56;5014840;28;105030;-69
2022/11/22 00:47:18;;;;;;;4.90;4.40;;;;;;;2.32;100.00;94506.41;5011874;28;102000;-69
2022/11/22 00:49:45;;;;;;;4.70;4.20;;;;;;;2.41;100.00;94504.97;5012328;28;104032;-69
2022/11/22 00:52:13;;;;;;;5.07;4.53;;;;;;;2.47;100.00;94511.84;5011620;28;105003;-69
2022/11/22 00:54:40;;;;;;;5.07;4.43;;;;;;;2.56;100.00;94507.75;5012352;28;102083;-69
2022/11/22 00:57:07;;;;;;;6.13;4.50;;;;;;;2.64;100.00;94520.41;5011901;28;105379;-69
2022/11/22 00:59:36;;;;;;;5.00;4.43;;;;;;;2.62;100.00;94527.75;5011809;28;105062;-69
2022/11/22 01:02:03;;;;;;;5.27;4.63;;;;;;;2.64;100.00;94528.28;5012339;28;101817;-69
2022/11/22 01:04:30;;;;;;;5.93;4.90;;;;;;;2.59;100.00;94531.66;5011947;28;105395;-69
2022/11/22 01:06:57;;;;;;;5.27;4.47;;;;;;;2.53;100.00;94529.22;5014860;28;104163;-69
2022/11/22 01:09:25;;;;;;;6.83;4.43;;;;;;;2.55;100.00;94537.63;5011711;28;104921;-69
2022/11/22 01:11:52;;;;;;;4.87;4.43;;;;;;;2.44;100.00;94539.34;5014330;28;105608;-69
2022/11/22 01:14:20;;;;;;;4.57;4.07;;;;;;;2.41;100.00;94547.69;5015156;28;102250;-69
2022/11/22 01:16:49;;;;;;;4.50;4.10;;;;;;;2.42;100.00;94538.00;5015240;28;105150;-69
2022/11/22 01:19:16;;;;;;;5.30;3.83;;;;;;;2.36;100.00;94552.09;5014716;28;105768;-69
2022/11/22 01:21:44;;;;;;;4.73;4.07;;;;;;;2.30;100.00;94553.06;5014838;28;101956;-69
2022/11/22 01:24:11;;;;;;;4.40;3.83;;;;;;;2.25;100.00;94538.06;5015323;28;105405;-69
2022/11/22 01:26:38;;;;;;;5.03;3.87;;;;;;;2.18;100.00;94545.31;5014792;28;104236;-69
2022/11/22 01:29:05;;;;;;;4.13;3.73;;;;;;;2.19;100.00;94528.53;5018673;28;102098;-69
2022/11/22 01:31:33;;;;;;;4.60;3.80;;;;;;;2.22;100.00;94527.28;5014500;28;104484;-69
2022/11/22 01:34:04;;;;;;;5.13;3.67;;;;;;;2.28;100.00;94523.66;5015103;28;101899;-69
2022/11/22 01:36:32;;;;;;;4.03;3.43;;;;;;;2.30;100.00;94524.22;5015022;28;102608;-69
2022/11/22 01:38:59;;;;;;;5.20;3.70;;;;;;;2.30;100.00;94516.38;5014538;28;104175;-69
2022/11/22 01:41:26;;;;;;;4.23;3.83;;;;;;;2.39;100.00;94522.75;5014977;28;102017;-69
2022/11/22 01:43:53;;;;;;;4.33;3.60;;;;;;;2.45;100.00;94513.91;5014718;28;105974;-69
2022/11/22 01:46:30;;;;;;;4.13;3.73;;;;;;;2.46;100.00;94515.50;5031739;28;102757;-69
2022/11/22 01:49:04;;;;;;;3.90;3.50;;;;;;;2.45;100.00;94509.47;5014721;28;101919;-69
2022/11/22 01:51:37;;;;;;;6.03;4.03;;;;;;;2.45;100.00;94506.03;5035881;28;104098;-69
2022/11/22 01:54:09;;;;;;;4.43;3.97;;;;;;;2.47;100.00;94503.97;5033277;28;101673;-69
2022/11/22 01:56:38;;;;;;;4.77;4.23;;;;;;;2.49;100.00;94504.50;5014528;28;102353;-69
2022/11/22 01:59:09;;;;;;;4.27;3.87;;;;;;;2.35;100.00;94511.97;5014141;28;104098;-69
2022/11/22 02:01:36;;;;;;;4.17;3.80;;;;;;;2.33;100.00;94500.13;5033082;28;101772;-69
2022/11/22 02:04:08;;;;;;;4.50;4.03;;;;;;;2.22;100.00;94490.56;5032983;28;102658;-69
2022/11/22 02:06:42;;;;;;;5.00;4.50;;;;;;;2.16;100.00;94494.97;5013928;28;103831;-69
2022/11/22 02:09:11;;;;;;;5.90;4.57;;;;;;;2.20;100.00;94492.66;5014691;28;102009;-69
2022/11/22 02:11:43;;;;;;;6.27;4.37;;;;;;;2.16;100.00;94494.16;5032426;28;101674;-69
2022/11/22 02:14:12;;;;;;;4.80;4.30;;;;;;;2.20;100.00;94503.13;5017226;28;103934;-69
2022/11/22 02:16:41;;;;;;;3.97;3.63;;;;;;;2.29;100.00;94496.44;5014395;28;105325;-69
2022/11/22 02:19:16;;;;;;;4.93;4.00;;;;;;;2.29;100.00;94496.44;5031831;28;103092;-69
2022/11/22 02:21:49;;;;;;;4.30;3.90;;;;;;;2.32;100.00;94495.94;5013810;28;102102;-69
2022/11/22 02:24:24;;;;;;;4.40;4.00;;;;;;;2.26;100.00;94500.34;5014281;28;105195;-69
2022/11/22 02:26:53;;;;;;;4.40;4.00;;;;;;;2.27;100.00;94490.63;5013799;28;105652;-69
2022/11/22 02:29:21;;;;;;;4.43;4.00;;;;;;;2.22;100.00;94493.19;5014271;28;101798;-69
2022/11/22 02:31:48;;;;;;;6.07;4.30;;;;;;;2.25;100.00;94495.31;5014225;28;103524;-69
2022/11/22 02:34:15;;;;;;;4.57;4.17;;;;;;;2.15;100.00;94498.63;5034996;28;102988;-69
2022/11/22 02:36:48;;;;;;;5.47;4.83;;;;;;;2.06;100.00;94491.41;5014201;28;103690;-69
2022/11/22 02:39:19;;;;;;;5.63;4.50;;;;;;;1.82;100.00;94492.69;5031880;28;103003;-69
2022/11/22 02:41:48;;;;;;;5.03;4.27;;;;;;;1.92;100.00;94495.44;5014026;28;101910;-69
2022/11/22 02:44:17;;;;;;;4.87;4.40;;;;;;;2.05;100.00;94495.88;5013933;28;105080;-69
2022/11/22 02:46:49;;;;;;;5.00;4.50;;;;;;;2.01;100.00;94492.16;5012799;28;104136;-69
2022/11/22 02:49:18;;;;;;;4.97;4.20;;;;;;;2.02;100.00;94488.50;5013948;28;101962;-69
2022/11/22 02:51:45;;;;;;;5.77;4.50;;;;;;;2.11;100.00;94500.16;5032090;28;102695;-69
2022/11/22 02:54:12;;;;;;;5.53;4.60;;;;;;;2.06;100.00;94507.13;5031575;28;102578;-69
2022/11/22 02:56:39;;;;;;;5.37;4.40;;;;;;;2.13;100.00;94518.25;5035351;28;101773;-69
2022/11/22 02:59:07;;;;;;;5.90;4.20;;;;;;;2.22;100.00;94516.78;5031283;28;102626;-69
2022/11/22 03:01:36;;;;;;;4.77;4.37;;;;;;;2.27;100.00;94515.03;5013955;28;101772;-69
2022/11/22 03:04:04;;;;;;;6.20;4.70;;;;;;;2.18;100.00;94515.69;5013845;28;104907;-69
2022/11/22 03:06:30;;;;;;;4.70;4.30;;;;;;;2.26;100.00;94521.31;5012999;28;105360;-69
2022/11/22 03:08:58;;;;;;;5.57;4.97;;;;;;;2.32;100.00;94524.78;5013489;28;101926;-69
2022/11/22 03:11:25;;;;;;;5.37;4.43;;;;;;;2.23;100.00;94526.22;5013387;28;104893;-69
2022/11/22 03:13:52;;;;;;;5.63;5.07;;;;;;;2.31;100.00;94520.56;5012974;28;105507;-69
2022/11/22 03:16:20;;;;;;;5.17;4.60;;;;;;;2.40;100.00;94534.84;5013642;28;101864;-69
2022/11/22 03:18:48;;;;;;;5.20;4.70;;;;;;;2.44;100.00;94531.47;5016028;28;103706;-69
2022/11/22 03:21:15;;;;;;;4.83;4.33;;;;;;;2.38;100.00;94534.28;5013503;28;102129;-69
2022/11/22 03:23:42;;;;;;;6.00;4.83;;;;;;;2.34;100.00;94525.31;5031585;27;102565;-69
2022/11/22 03:26:10;;;;;;;5.03;4.37;;;;;;;2.17;100.00;94521.97;5012877;28;105329;-69
2022/11/22 03:28:37;;;;;;;5.40;4.83;;;;;;;2.24;100.00;94512.88;5013142;28;101902;-69
2022/11/22 03:31:06;;;;;;;5.27;4.73;;;;;;;2.29;100.00;94522.66;5013456;28;105105;-69
2022/11/22 03:33:33;;;;;;;5.17;4.67;;;;;;;2.39;100.00;94528.00;5012516;28;105428;-68
2022/11/22 03:36:03;;;;;;;5.93;4.90;;;;;;;2.42;100.00;94524.91;5031630;28;101781;-68
2022/11/22 03:38:31;;;;;;;5.83;4.83;;;;;;;2.54;100.00;94525.53;5031734;28;101657;-68
2022/11/22 03:40:58;;;;;;;4.80;4.30;;;;;;;2.55;100.00;94527.13;5016351;28;105666;-68
2022/11/22 03:43:25;;;;;;;5.43;4.60;;;;;;;2.56;100.00;94524.25;5013231;28;105452;-68
2022/11/22 03:45:52;;;;;;;5.00;4.50;;;;;;;2.54;100.00;94522.94;5011703;28;105254;-68
2022/11/22 03:48:19;;;;;;;5.30;4.57;;;;;;;2.61;100.00;94521.69;5012860;28;101941;-68
2022/11/22 03:50:46;;;;;;;5.20;4.50;;;;;;;2.70;100.00;94530.72;5013086;28;104743;-68
2022/11/22 03:53:16;;;;;;;6.27;5.13;;;;;;;2.70;100.00;94533.34;5012352;28;106871;-68
2022/11/22 03:55:43;;;;;;;5.53;5.03;;;;;;;2.74;100.00;94526.53;5012969;28;101880;-68
2022/11/22 03:58:10;;;;;;;5.30;4.77;;;;;;;2.77;100.00;94538.38;5012795;28;103832;-68
2022/11/22 04:00:37;;;;;;;5.03;4.33;;;;;;;2.70;100.00;94537.78;5012278;28;105153;-68
2022/11/22 04:03:05;;;;;;;5.07;4.63;;;;;;;2.67;100.00;94543.56;5016326;28;101962;-69
2022/11/22 04:05:32;;;;;;;5.00;4.50;;;;;;;2.72;100.00;94549.63;5012354;28;105828;-68
2022/11/22 04:07:59;;;;;;;5.30;4.60;;;;;;;2.73;100.00;94550.44;5012693;28;101970;-68
2022/11/22 04:10:27;;;;;;;5.57;5.03;;;;;;;2.74;100.00;94547.53;5012705;28;105105;-68
2022/11/22 04:12:58;;;;;;;5.07;4.43;;;;;;;2.72;100.00;94540.94;5011867;28;105995;-68
2022/11/22 04:15:24;;;;;;;5.70;4.63;;;;;;;2.78;100.00;94547.88;5012697;28;101907;-68
2022/11/22 04:17:51;;;;;;;4.70;4.30;;;;;;;2.83;100.00;94548.69;5012592;28;105189;-68
2022/11/22 04:23:07;;;;;;;5.47;4.97;;;;;;;2.83;100.00;94559.19;5030693;28;101971;-69
2022/11/22 04:25:36;;;;;;;5.57;4.97;;;;;;;2.87;100.00;94557.66;5014895;28;105373;-69
2022/11/22 04:28:05;;;;;;;5.30;4.80;;;;;;;2.92;100.00;94549.03;5030534;28;101911;-69
2022/11/22 04:33:18;;;;;;;5.37;4.87;;;;;;;2.78;100.00;94556.50;5030116;28;102805;-69
2022/11/22 04:35:45;;;;;;;5.50;4.90;;;;;;;2.77;100.00;94557.56;5030660;28;101701;-69
2022/11/22 04:38:14;;;;;;;4.97;4.57;;;;;;;2.82;100.00;94564.69;5030227;28;102351;-69
2022/11/22 04:40:43;;;;;;;6.43;5.83;;;;;;;2.75;100.00;94569.34;5029838;28;102576;-69
2022/11/22 04:45:59;;;;;;;5.40;4.83;;;;;;;2.84;100.00;94573.13;5014140;28;105484;-69
2022/11/22 04:48:26;;;;;;;4.90;4.50;;;;;;;2.86;100.00;94571.84;5030394;28;101693;-69
2022/11/22 04:53:37;;;;;;;7.03;5.17;;;;;;;2.88;100.00;94572.38;5029690;28;103116;-69
2022/11/22 04:56:06;;;;;;;6.57;5.10;;;;;;;2.90;100.00;94578.16;5012171;28;101873;-69
2022/11/22 04:58:33;;;;;;;6.17;5.40;;;;;;;2.72;100.00;94578.50;5030126;28;102504;-69
2022/11/22 05:01:00;;;;;;;6.47;4.90;;;;;;;2.87;100.00;94572.63;5011357;28;103877;-69
2022/11/22 05:03:27;;;;;;;6.00;5.00;;;;;;;2.85;100.00;94574.69;5030128;28;101819;-69
2022/11/22 05:05:54;;;;;;;8.07;5.07;;;;;;;2.80;100.00;94577.28;5030204;28;101739;-69
2022/11/22 05:08:21;;;;;;;8.27;5.70;;;;;;;2.85;100.00;94577.31;5014596;28;105347;-69
2022/11/22 05:10:58;;;;;;;7.30;5.07;;;;;;;2.97;100.00;94581.41;5012016;28;104955;-69
2022/11/22 05:13:29;;;;;;;5.97;5.13;;;;;;;3.10;100.00;94582.81;5011096;28;105499;-69
2022/11/22 05:15:57;;;;;;;6.27;5.67;;;;;;;3.02;100.00;94578.81;5011978;28;101822;-69
2022/11/22 05:18:26;;;;;;;6.63;5.77;;;;;;;3.13;100.00;94587.59;5011730;28;105683;-69
2022/11/22 05:20:53;;;;;;;6.37;5.70;;;;;;;3.16;100.00;94587.88;5011122;28;105224;-69
2022/11/22 05:26:06;;;;;;;7.53;5.67;;;;;;;3.26;100.00;94597.69;5011796;28;104180;-69
2022/11/22 05:28:37;;;;;;;6.53;5.87;;;;;;;3.33;100.00;94585.16;5010807;28;105195;-69
2022/11/22 05:31:09;;;;;;;7.57;5.97;;;;;;;3.30;100.00;94593.53;5015275;28;102007;-69
2022/11/22 05:33:39;;;;;;;6.87;6.17;;;;;;;3.22;100.00;94591.38;5010946;28;105884;-69
2022/11/22 05:36:07;;;;;;;6.83;5.90;;;;;;;3.22;100.00;94580.84;5011330;28;101852;-69
2022/11/22 05:38:36;;;;;;;7.23;6.47;;;;;;;3.30;100.00;94590.91;5011480;28;104809;-69
2022/11/22 05:41:04;;;;;;;9.83;6.20;;;;;;;3.27;100.00;94584.31;5010591;28;105762;-69
2022/11/22 05:43:32;;;;;;;6.53;5.83;;;;;;;3.29;100.00;94581.44;5011608;28;101893;-69
2022/11/22 05:46:07;;;;;;;6.70;6.00;;;;;;;3.25;100.00;94586.41;5011169;28;106021;-69
2022/11/22 05:48:34;;;;;;;6.27;5.67;;;;;;;3.08;100.00;94592.78;5010820;28;105383;-69
2022/11/22 05:51:04;;;;;;;7.53;5.43;;;;;;;3.16;100.00;94582.63;5011327;28;102398;-69
2022/11/22 05:53:32;;;;;;;7.23;5.80;;;;;;;3.15;100.00;94581.03;5014122;28;105016;-69
2022/11/22 05:56:04;;;;;;;6.37;5.10;;;;;;;3.15;100.00;94583.69;5011167;27;101864;-69
2022/11/22 05:58:32;;;;;;;7.10;5.40;;;;;;;3.07;100.00;94588.59;5032167;28;102312;-69
2022/11/22 06:01:03;;;;;;;7.20;6.50;;;;;;;3.16;100.00;94592.34;5032251;28;102535;-69
2022/11/22 06:03:36;;;;;;;6.50;5.90;;;;;;;3.14;100.00;94605.72;4997975;28;101812;-69
2022/11/22 06:06:03;;;;;;;7.47;6.30;;;;;;;3.17;100.00;94591.31;5014605;28;105913;-69
2022/11/22 06:08:31;;;;;;;6.50;5.67;;;;;;;3.27;100.00;94599.28;5014034;28;105350;-69
2022/11/22 06:11:05;;;;;;;7.37;6.67;;;;;;;3.26;100.00;94600.31;5014498;28;101965;-69
2022/11/22 06:13:35;;;;;;;7.57;6.80;;;;;;;3.30;100.00;94594.34;5014423;28;105219;-69
2022/11/22 06:16:02;;;;;;;9.30;7.43;;;;;;;3.27;100.00;94602.69;5017281;28;103991;-69
2022/11/22 06:18:29;;;;;;;9.47;8.23;;;;;;;3.25;100.00;94593.47;5014557;28;105215;-69
2022/11/22 06:20:59;;;;;;;9.90;7.97;;;;;;;3.35;100.00;94596.19;5013724;28;104232;-69
2022/11/22 06:23:26;;;;;;;7.77;6.97;;;;;;;3.36;100.00;94595.16;5032706;27;101833;-69
2022/11/22 06:25:58;;;;;;;9.27;7.30;;;;;;;3.35;100.00;94596.19;5014486;28;105241;-69
2022/11/22 06:28:25;;;;;;;9.67;7.33;;;;;;;3.35;100.00;94601.44;5013586;28;103748;-69
2022/11/22 06:30:52;;;;;;;9.93;7.73;;;;;;;3.35;100.00;94593.56;5014271;28;101939;-69
2022/11/22 06:33:20;;;;;;;7.87;7.07;;;;;;;3.49;100.00;94600.78;5014275;28;105535;-69
2022/11/22 06:35:46;;;;;;;8.17;6.87;;;;;;;3.44;100.00;94608.63;5013542;28;104366;-69
2022/11/22 06:38:16;;;;;;;8.97;7.17;;;;;;;3.42;100.00;94604.66;5036008;28;101760;-69
2022/11/22 06:40:43;;;;;;;8.83;6.90;;;;;;;3.47;100.00;94608.16;5013621;28;104952;-69
2022/11/22 06:43:10;;;;;;;8.27;6.90;;;;;;;3.46;100.00;94608.38;5013652;28;101997;-69
2022/11/22 06:45:37;;;;;;;6.47;5.70;;;;;;;3.47;100.00;94616.03;5014091;28;104878;-69
2022/11/22 06:48:04;;;;;;;6.70;5.70;;;;;;;3.39;100.00;94602.56;5031724;28;101873;-69
2022/11/22 06:50:31;;;;;;;8.10;6.17;;;;;;;3.46;100.00;94613.63;5013906;28;102169;-69
2022/11/22 06:52:59;;;;;;;7.57;6.00;;;;;;;3.46;100.00;94632.84;5013828;28;105146;-69
2022/11/22 06:55:27;;;;;;;6.63;5.80;;;;;;;3.49;100.00;94623.66;5012986;28;105185;-69
2022/11/22 06:57:54;;;;;;;7.10;6.10;;;;;;;3.59;100.00;94629.78;5017448;28;101928;-69
2022/11/22 07:00:21;;;;;;;6.93;6.23;;;;;;;3.61;100.00;94635.56;5013307;28;104970;-69
2022/11/22 07:02:49;;;;;;;7.47;6.67;;;;;;;3.55;100.00;94641.84;5013545;28;101760;-69
2022/11/22 07:05:16;;;;;;;7.13;6.43;;;;;;;3.56;100.00;94640.78;5013442;28;102523;-69
2022/11/22 07:07:43;;;;;;;8.63;7.20;;;;;;;3.57;100.00;94652.09;5012551;27;105565;-69
2022/11/22 07:10:10;;;;;;;8.53;7.20;;;;;;;3.53;100.00;94658.88;5013595;28;102229;-69
2022/11/22 07:12:38;;;;;;;9.63;7.33;;;;;;;3.63;100.00;94656.34;5013417;28;105006;-69
2022/11/22 07:15:07;;;;;;;8.87;7.10;;;;;;;3.62;100.00;94667.91;5012934;28;105763;-69
2022/11/22 07:17:34;;;;;;;8.73;7.83;;;;;;;3.59;100.00;94666.56;5013210;28;102478;-69
2022/11/22 07:20:01;;;;;;;10.50;8.93;;;;;;;3.61;100.00;94669.75;5016448;28;103590;-69
2022/11/22 07:22:28;;;;;;;12.00;10.03;;;;;;;3.65;100.00;94675.31;5031694;28;101913;-69
2022/11/22 07:24:55;;;;;;;11.03;8.90;;;;;;;3.57;100.00;94681.81;5012116;28;105113;-69
2022/11/22 07:27:21;;;;;;;28.40;14.47;;;;;;;3.54;100.00;94689.38;4996297;28;105228;-69
2022/11/22 07:29:50;;;;;;;222.67;93.27;;;;;;;3.59;100.00;94694.69;5011995;28;101977;-69
2022/11/22 07:32:17;;;;;;;59.47;27.90;;;;;;;3.55;100.00;94701.50;5012204;28;105341;-69
2022/11/22 07:34:44;;;;;;;45.50;22.87;;;;;;;3.56;100.00;94697.81;5011147;28;104170;-69
2022/11/22 07:37:11;;;;;;;7.77;6.77;;;;;;;3.62;100.00;94699.44;5012310;28;101932;-69
2022/11/22 07:39:38;;;;;;;65.40;33.00;;;;;;;3.58;100.00;94700.97;5031235;28;102886;-69
2022/11/22 07:42:05;;;;;;;10.10;7.27;;;;;;;3.73;100.00;94712.44;5015106;28;105880;-69
2022/11/22 07:44:32;;;;;;;9.00;6.60;;;;;;;3.77;100.00;94710.13;5013232;28;104057;-69
2022/11/22 07:47:01;;;;;;;8.00;7.13;;;;;;;3.78;100.00;94715.09;5011880;28;105354;-69
2022/11/22 07:49:28;;;;;;;9.17;8.17;;;;;;;3.80;100.00;94714.84;5013075;28;101846;-69
2022/11/22 07:51:55;;;;;;;9.40;7.10;;;;;;;3.78;100.00;94725.63;5013090;28;105145;-69
2022/11/22 07:54:22;;;;;;;8.67;7.30;;;;;;;3.77;100.00;94728.53;5012310;28;105237;-69
2022/11/22 07:56:49;;;;;;;11.20;8.37;;;;;;;3.78;100.00;94732.72;5012684;28;101822;-69
2022/11/22 07:59:16;;;;;;;8.80;7.03;;;;;;;3.76;100.00;94738.22;5031165;28;102373;-69
2022/11/22 08:01:44;;;;;;;9.50;7.27;;;;;;;3.74;100.00;94747.41;5030180;28;104176;-69
2022/11/22 08:04:13;;;;;;;12.90;9.53;;;;;;;3.79;100.00;94745.63;5016261;28;101837;-69
2022/11/22 08:06:40;;;;;;;8.83;7.93;;;;;;;3.87;100.00;94754.91;5012211;28;105176;-69
2022/11/22 08:09:07;;;;;;;8.47;7.23;;;;;;;3.88;100.00;94751.22;5031128;28;101950;-69
2022/11/22 08:11:35;;;;;;;9.60;7.40;;;;;;;4.01;100.00;94759.50;5012432;28;103522;-69
2022/11/22 08:14:02;;;;;;;7.93;6.30;;;;;;;4.13;100.00;94764.59;4995718;28;105566;-69
2022/11/22 08:16:29;;;;;;;6.73;5.23;;;;;;;4.28;100.00;94770.81;5026787;28;101885;-69
2022/11/22 08:18:56;;;;;;;6.50;5.57;;;;;;;4.36;100.00;94777.44;5009336;28;105491;-69
2022/11/22 08:21:25;;;;;;;32.93;21.53;;;;;;;4.42;100.00;94786.97;5007785;28;105148;-69
2022/11/22 08:23:57;;;;;;;38.87;25.50;;;;;;;4.46;100.00;94788.03;5008089;28;102156;-69
2022/11/22 08:26:25;;;;;;;10.23;9.07;;;;;;;4.50;100.00;94792.56;5011040;28;104920;-69
2022/11/22 08:28:52;;;;;;;7.37;5.30;;;;;;;4.57;100.00;94789.69;5008857;28;101914;-69
2022/11/22 08:31:19;;;;;;;12.70;11.40;;;;;;;4.60;100.00;94797.09;5009185;28;105686;-69
2022/11/22 08:33:52;;;;;;;15.37;13.83;;;;;;;4.63;100.00;94801.88;5007364;28;106654;-69
2022/11/22 08:36:19;;;;;;;11.33;9.67;;;;;;;4.65;100.00;94808.44;5008058;28;101917;-69
2022/11/22 08:38:48;;;;;;;13.33;10.47;;;;;;;4.69;100.00;94811.41;5010118;28;102868;-69
2022/11/22 08:41:15;;;;;;;10.00;6.77;;;;;;;4.72;100.00;94816.16;5008846;28;102702;-69
2022/11/22 08:43:43;;;;;;;5.20;3.87;;;;;;;4.76;100.00;94819.88;5010389;28;102000;-69
2022/11/22 08:46:10;;;;;;;4.37;3.73;;;;;;;4.81;100.00;94828.59;5008405;28;103673;-69
2022/11/22 08:48:38;;;;;;;3.53;3.23;;;;;;;4.81;100.00;94833.06;5012858;28;101656;-69
2022/11/22 08:51:07;;;;;;;3.00;2.73;;;;;;;4.83;100.00;94831.78;5008773;28;103602;-69
2022/11/22 08:53:36;;;;;;;2.07;1.80;;;;;;;4.83;100.00;94844.94;5009442;28;102449;-69
2022/11/22 08:56:08;;;;;;;2.57;2.30;;;;;;;4.82;100.00;94835.47;5010391;28;101716;-69
2022/11/22 08:58:36;;;;;;;2.00;1.77;;;;;;;4.83;100.00;94841.50;5008744;28;105301;-69
2022/11/22 09:01:07;;;;;;;3.77;1.33;;;;;;;4.82;100.00;94840.72;5008056;28;104139;-69
2022/11/22 09:03:35;;;;;;;2.93;1.20;;;;;;;4.88;100.00;94823.09;5008519;28;101957;-69
2022/11/22 09:06:03;;;;;;;1.40;1.03;;;;;;;4.87;100.00;94832.06;5008515;28;104611;-69
2022/11/22 09:08:30;;;;;;;2.63;1.30;;;;;;;4.86;100.00;94831.25;5012692;28;102224;-66
2022/11/22 09:11:00;;;;;;;2.97;1.30;;;;;;;4.86;100.00;94838.38;5011408;28;105140;-63
2022/11/22 09:13:31;;;;;;;2.23;1.00;;;;;;;4.83;100.00;94833.59;5021733;28;105426;-66
2022/11/22 09:16:02;;;;;;;1.27;1.17;;;;;;;4.84;100.00;94848.34;5028287;28;101786;-66
2022/11/22 09:18:28;;;;;;;1.30;1.20;;;;;;;4.82;100.00;94855.72;5028571;28;103634;-66
2022/11/22 09:20:58;;;;;;;1.40;1.23;;;;;;;4.78;100.00;94857.25;5013074;28;106107;-65
2022/11/22 09:23:27;;;;;;;3.13;1.40;;;;;;;4.82;100.00;94855.72;5029320;28;102145;-67
2022/11/22 09:25:58;;;;;;;1.27;1.10;;;;;;;4.83;100.00;94858.13;5011550;28;105092;-63
2022/11/22 09:28:26;;;;;;;1.50;1.40;;;;;;;4.85;100.00;94861.28;5010584;28;103803;-65
2022/11/22 09:31:00;;;;;;;2.90;1.60;;;;;;;4.81;100.00;94859.41;5033112;27;101856;-68
